createdAt,value
2024-01-06T00:01:19.318Z,83997.19
2024-01-06T00:03:46.924Z,84005.06
2024-01-06T00:06:17.348Z,84004.34
2024-01-06T00:08:45.116Z,83993.34
2024-01-06T00:11:12.589Z,83999.59
2024-01-06T00:13:40.063Z,84001.19
2024-01-06T00:16:07.972Z,84006.78
2024-01-06T00:18:35.652Z,84014.91
2024-01-06T00:21:03.057Z,84021.44
2024-01-06T00:23:30.482Z,84023.09
2024-01-06T00:25:58.279Z,83960.03
2024-01-06T00:28:25.669Z,84022.19
2024-01-06T00:30:53.053Z,84027.06
2024-01-06T00:33:20.585Z,84026.53
2024-01-06T00:35:47.889Z,84028.31
2024-01-06T00:38:15.518Z,84021.50
2024-01-06T00:40:42.925Z,84022.41
2024-01-06T00:43:10.387Z,84028.44
2024-01-06T00:45:37.763Z,84025.19
2024-01-06T00:48:06.310Z,84017.97
2024-01-06T00:50:33.801Z,84029.13
2024-01-06T00:53:01.257Z,84027.31
2024-01-06T00:55:28.669Z,84018.81
2024-01-06T00:57:56.406Z,84014.00
2024-01-06T01:00:24.318Z,83964.41
2024-01-06T01:02:51.698Z,84025.41
2024-01-06T01:05:19.121Z,84026.13
2024-01-06T01:07:46.639Z,84046.09
2024-01-06T01:10:13.981Z,84049.34
2024-01-06T01:12:41.558Z,84058.53
2024-01-06T01:15:09.536Z,84061.94
2024-01-06T01:17:38.505Z,84057.47
2024-01-06T01:20:06.574Z,83984.00
2024-01-06T01:22:34.019Z,84066.72
2024-01-06T01:25:06.525Z,84062.56
2024-01-06T01:27:34.120Z,84054.09
2024-01-06T01:30:01.820Z,84050.59
2024-01-06T01:32:29.573Z,83922.09
2024-01-06T01:34:57.098Z,84062.69
2024-01-06T01:37:24.657Z,84049.03
2024-01-06T01:39:52.078Z,84055.78
2024-01-06T01:42:19.614Z,84052.19
2024-01-06T01:44:46.929Z,84051.28
2024-01-06T01:47:19.842Z,84056.44
2024-01-06T01:49:48.352Z,84052.09
2024-01-06T01:52:17.274Z,84056.75
2024-01-06T01:54:46.922Z,84062.94
2024-01-06T01:57:16.130Z,84063.03
2024-01-06T01:59:43.910Z,84080.38
2024-01-06T02:02:11.564Z,84074.06
2024-01-06T02:04:40.502Z,84076.91
2024-01-06T02:07:07.806Z,84099.16
2024-01-06T02:09:35.447Z,84095.78
2024-01-06T02:12:02.819Z,84094.69
2024-01-06T02:14:30.285Z,84106.13
2024-01-06T02:16:57.785Z,84119.78
2024-01-06T02:19:26.236Z,84021.50
2024-01-06T02:21:54.960Z,84053.50
2024-01-06T02:24:22.942Z,84136.75
2024-01-06T02:26:50.557Z,84121.31
2024-01-06T02:29:18.004Z,84082.97
2024-01-06T02:31:45.605Z,84120.06
2024-01-06T02:34:13.288Z,84129.75
2024-01-06T02:36:40.846Z,84075.72
2024-01-06T02:39:08.408Z,84123.63
2024-01-06T02:41:35.913Z,84140.44
2024-01-06T02:44:05.038Z,84142.00
2024-01-06T02:46:32.535Z,84146.06
2024-01-06T02:49:00.079Z,84080.47
2024-01-06T02:51:27.494Z,84170.09
2024-01-06T02:53:54.970Z,84177.63
2024-01-06T02:56:23.037Z,84182.47
2024-01-06T02:58:50.453Z,84176.47
2024-01-06T03:01:19.409Z,84196.16
2024-01-06T03:03:46.984Z,84158.91
2024-01-06T03:06:14.440Z,84207.63
2024-01-06T03:08:41.909Z,84211.69
2024-01-06T03:11:09.355Z,84216.94
2024-01-06T03:13:36.898Z,84217.16
2024-01-06T03:16:07.250Z,84102.50
2024-01-06T03:18:35.019Z,84208.34
2024-01-06T03:21:02.457Z,84222.06
2024-01-06T03:23:29.975Z,84215.94
2024-01-06T03:25:57.303Z,84223.56
2024-01-06T03:28:24.692Z,84150.41
2024-01-06T03:30:52.151Z,84221.81
2024-01-06T03:33:19.772Z,84223.22
2024-01-06T03:35:47.167Z,84231.38
2024-01-06T03:38:14.670Z,84237.22
2024-01-06T03:40:42.008Z,84244.16
2024-01-06T03:43:09.549Z,84249.00
2024-01-06T03:45:36.955Z,84249.25
2024-01-06T03:48:04.637Z,84247.66
2024-01-06T03:50:32.110Z,84252.81
2024-01-06T03:52:59.567Z,84270.88
2024-01-06T03:55:26.907Z,84270.78
2024-01-06T03:57:54.369Z,84271.63
2024-01-06T04:00:21.908Z,84267.53
2024-01-06T04:02:49.319Z,84278.13
2024-01-06T04:05:16.678Z,84273.59
2024-01-06T04:07:44.089Z,84271.38
2024-01-06T04:10:11.409Z,84279.00
2024-01-06T04:12:38.996Z,84277.38
2024-01-06T04:15:06.601Z,84277.44
2024-01-06T04:17:34.401Z,84290.47
2024-01-06T04:20:01.852Z,84300.66
2024-01-06T04:22:29.337Z,84296.91
2024-01-06T04:24:56.766Z,84304.72
2024-01-06T04:27:24.137Z,84302.19
2024-01-06T04:29:54.504Z,84316.31
2024-01-06T04:32:22.038Z,84327.13
2024-01-06T04:34:49.401Z,84338.13
2024-01-06T04:37:16.857Z,84339.91
2024-01-06T04:39:44.191Z,84338.25
2024-01-06T04:42:11.748Z,84320.78
2024-01-06T04:44:39.303Z,84337.94
2024-01-06T04:47:06.772Z,84355.47
2024-01-06T04:49:34.234Z,84362.47
2024-01-06T04:52:01.773Z,84350.09
2024-01-06T04:54:29.180Z,84346.31
2024-01-06T04:56:57.384Z,84343.03
2024-01-06T04:59:24.811Z,84338.59
2024-01-06T05:01:53.495Z,84238.03
2024-01-06T05:04:21.346Z,84340.91
2024-01-06T05:06:53.611Z,84351.75
2024-01-06T05:09:21.144Z,84349.41
2024-01-06T05:11:48.507Z,84358.88
2024-01-06T05:14:15.896Z,84360.16
2024-01-06T05:16:43.817Z,84324.91
2024-01-06T05:19:11.449Z,84377.66
2024-01-06T05:21:39.259Z,84384.78
2024-01-06T05:24:07.041Z,84375.69
2024-01-06T05:26:34.458Z,84387.81
2024-01-06T05:29:02.011Z,84380.34
2024-01-06T05:31:29.499Z,84368.34
2024-01-06T05:33:57.095Z,84398.13
2024-01-06T05:36:24.586Z,84403.22
2024-01-06T05:38:53.674Z,84380.72
2024-01-06T05:41:21.259Z,84384.75
2024-01-06T05:43:48.733Z,84389.66
2024-01-06T05:46:25.870Z,84398.41
2024-01-06T05:48:53.635Z,84406.66
2024-01-06T05:51:21.148Z,84408.00
2024-01-06T05:53:48.572Z,84410.13
2024-01-06T05:56:28.587Z,84426.88
2024-01-06T05:58:57.056Z,84429.03
2024-01-06T06:01:24.670Z,84427.06
2024-01-06T06:03:52.945Z,84418.63
2024-01-06T06:06:20.500Z,84426.16
2024-01-06T06:08:49.832Z,84433.47
2024-01-06T06:11:20.049Z,84447.72
2024-01-06T06:13:47.543Z,84451.28
2024-01-06T06:16:14.959Z,84448.84
2024-01-06T06:18:42.797Z,84456.31
2024-01-06T06:21:10.288Z,84450.16
2024-01-06T06:23:37.900Z,84439.63
2024-01-06T06:26:07.242Z,84437.09
2024-01-06T06:28:35.666Z,84389.31
2024-01-06T06:31:04.407Z,84365.50
2024-01-06T06:33:32.356Z,84465.63
2024-01-06T06:35:59.774Z,84464.00
2024-01-06T06:38:27.788Z,84464.59
2024-01-06T06:40:57.703Z,84462.53
2024-01-06T06:43:25.277Z,84466.91
2024-01-06T06:45:52.720Z,84461.34
2024-01-06T06:48:20.201Z,84420.91
2024-01-06T06:50:47.535Z,84484.31
2024-01-06T06:53:15.091Z,84480.13
2024-01-06T06:55:42.734Z,84425.81
2024-01-06T06:58:10.154Z,84482.38
2024-01-06T07:00:38.309Z,84482.25
2024-01-06T07:03:05.963Z,84484.13
2024-01-06T07:05:33.551Z,84479.97
2024-01-06T07:08:04.333Z,84485.81
2024-01-06T07:10:31.781Z,84491.22
2024-01-06T07:12:59.135Z,84491.44
2024-01-06T07:15:26.578Z,84487.47
2024-01-06T07:17:54.204Z,84486.56
2024-01-06T07:20:21.715Z,84484.19
2024-01-06T07:22:49.042Z,84489.72
2024-01-06T07:25:16.687Z,84504.84
2024-01-06T07:27:44.131Z,84503.72
2024-01-06T07:30:12.253Z,84506.50
2024-01-06T07:32:39.766Z,84501.94
2024-01-06T07:35:08.241Z,84496.91
2024-01-06T07:37:36.137Z,84491.63
2024-01-06T07:40:03.923Z,84479.66
2024-01-06T07:42:31.287Z,84474.88
2024-01-06T07:44:58.888Z,84463.53
2024-01-06T07:47:26.426Z,84470.06
2024-01-06T07:49:54.728Z,84469.59
2024-01-06T07:52:22.272Z,84468.63
2024-01-06T07:54:50.164Z,84473.19
2024-01-06T07:57:17.965Z,84471.06
2024-01-06T07:59:46.100Z,84471.28
2024-01-06T08:02:13.668Z,84462.59
2024-01-06T08:04:41.022Z,84478.97
2024-01-06T08:07:08.596Z,84474.13
2024-01-06T08:09:37.931Z,84477.16
2024-01-06T08:12:06.854Z,84475.34
2024-01-06T08:14:34.227Z,84456.22
2024-01-06T08:17:01.780Z,84479.09
2024-01-06T08:19:32.024Z,84474.69
2024-01-06T08:21:59.650Z,84437.53
2024-01-06T08:24:28.149Z,84481.44
2024-01-06T08:26:55.646Z,84489.81
2024-01-06T08:29:23.037Z,84490.06
2024-01-06T08:31:53.636Z,84487.06
2024-01-06T08:34:21.292Z,84486.81
2024-01-06T08:36:48.908Z,84482.88
2024-01-06T08:39:16.977Z,84492.66
2024-01-06T08:41:44.444Z,84479.38
2024-01-06T08:44:11.975Z,84480.53
2024-01-06T08:46:39.326Z,84474.69
2024-01-06T08:49:07.072Z,84477.25
2024-01-06T08:51:34.450Z,84477.53
2024-01-06T08:54:04.844Z,84477.63
2024-01-06T08:56:32.346Z,84437.28
2024-01-06T08:59:00.428Z,84474.16
2024-01-06T09:01:27.921Z,84466.72
2024-01-06T09:03:55.455Z,84464.66
2024-01-06T09:06:22.929Z,84462.81
2024-01-06T09:08:50.722Z,84469.09
2024-01-06T09:11:18.207Z,84454.41
2024-01-06T09:13:45.586Z,84449.31
2024-01-06T09:16:13.175Z,84457.00
2024-01-06T09:18:41.292Z,84447.22
2024-01-06T09:21:08.870Z,84450.91
2024-01-06T09:23:36.729Z,84451.06
2024-01-06T09:26:04.547Z,84451.72
2024-01-06T09:28:31.973Z,84426.09
2024-01-06T09:30:59.664Z,84430.34
2024-01-06T09:33:27.211Z,84440.59
2024-01-06T09:35:54.943Z,84349.69
2024-01-06T09:38:22.317Z,84442.31
2024-01-06T09:40:50.561Z,84444.19
2024-01-06T09:43:18.020Z,84431.13
2024-01-06T09:45:50.285Z,84443.31
2024-01-06T09:48:19.204Z,84439.00
2024-01-06T09:50:50.690Z,84429.53
2024-01-06T09:53:18.554Z,84427.03
2024-01-06T09:55:46.488Z,84427.22
2024-01-06T09:58:14.099Z,84425.53
2024-01-06T10:00:41.608Z,84424.81
2024-01-06T10:03:09.400Z,84419.09
2024-01-06T10:05:37.576Z,84429.72
2024-01-06T10:08:05.733Z,84431.88
2024-01-06T10:10:35.738Z,84430.03
2024-01-06T10:13:03.309Z,84425.25
2024-01-06T10:15:30.676Z,84412.66
2024-01-06T10:17:59.947Z,84415.28
2024-01-06T10:20:28.349Z,84420.47
2024-01-06T10:22:56.012Z,84325.06
2024-01-06T10:25:26.470Z,84410.59
2024-01-06T10:27:54.601Z,84414.50
2024-01-06T10:30:21.927Z,84411.78
2024-01-06T10:32:51.130Z,84415.25
2024-01-06T10:35:19.990Z,84423.47
2024-01-06T10:37:48.521Z,84428.00
2024-01-06T10:40:18.118Z,84432.78
2024-01-06T10:42:46.796Z,84438.88
2024-01-06T10:45:15.826Z,84432.91
2024-01-06T10:47:44.766Z,84426.19
2024-01-06T10:50:14.424Z,84399.50
2024-01-06T10:52:44.691Z,84368.47
2024-01-06T10:55:13.125Z,84436.13
2024-01-06T10:57:44.527Z,84436.47
2024-01-06T11:00:12.702Z,84442.53
2024-01-06T11:02:40.865Z,84376.63
2024-01-06T11:05:09.353Z,84442.94
2024-01-06T11:07:37.330Z,84426.44
2024-01-06T11:10:18.058Z,84452.94
2024-01-06T11:12:45.912Z,84445.94
2024-01-06T11:15:46.411Z,84445.69
2024-01-06T11:18:35.524Z,84450.22
2024-01-06T11:21:15.465Z,84454.09
2024-01-06T11:23:43.004Z,84456.78
2024-01-06T11:26:10.660Z,84456.28
2024-01-06T11:28:48.708Z,84456.47
2024-01-06T11:31:16.804Z,84450.41
2024-01-06T11:33:44.575Z,84469.56
2024-01-06T11:36:15.488Z,84477.44
2024-01-06T11:38:43.037Z,84474.66
2024-01-06T11:41:13.405Z,84477.06
2024-01-06T11:43:41.930Z,84481.78
2024-01-06T11:46:10.518Z,84483.88
2024-01-06T11:48:38.674Z,84482.63
2024-01-06T11:51:06.697Z,84482.97
2024-01-06T11:53:34.234Z,84485.59
2024-01-06T11:56:03.523Z,84480.03
2024-01-06T11:58:30.874Z,84487.47
2024-01-06T12:00:59.105Z,84487.69
2024-01-06T12:03:27.919Z,84495.63
2024-01-06T12:06:05.332Z,84497.06
2024-01-06T12:08:32.937Z,84500.69
2024-01-06T12:11:04.712Z,84438.91
2024-01-06T12:13:33.127Z,84496.50
2024-01-06T12:16:01.841Z,84491.81
2024-01-06T12:18:29.699Z,84484.13
2024-01-06T12:20:57.598Z,84418.00
2024-01-06T12:23:27.225Z,84484.84
2024-01-06T12:25:57.800Z,84489.00
2024-01-06T12:28:26.084Z,84480.13
2024-01-06T12:30:54.581Z,84496.28
2024-01-06T12:33:22.517Z,84503.59
2024-01-06T12:35:49.682Z,84499.25
2024-01-06T12:38:20.927Z,84497.19
2024-01-06T12:40:48.355Z,84501.91
2024-01-06T12:43:15.685Z,84512.47
2024-01-06T12:45:43.504Z,84503.63
2024-01-06T12:48:11.001Z,84512.69
2024-01-06T12:50:38.838Z,84466.66
2024-01-06T12:53:06.000Z,84515.25
2024-01-06T12:55:33.560Z,84509.88
2024-01-06T12:58:05.287Z,84518.06
2024-01-06T13:00:36.430Z,84509.19
2024-01-06T13:03:06.014Z,84508.66
2024-01-06T13:05:33.619Z,84464.59
2024-01-06T13:08:01.085Z,84510.84
2024-01-06T13:10:28.457Z,84505.09
2024-01-06T13:12:55.935Z,84506.97
2024-01-06T13:15:23.529Z,84449.81
2024-01-06T13:17:53.107Z,84515.47
2024-01-06T13:20:21.005Z,84517.72
2024-01-06T13:22:48.365Z,84514.28
2024-01-06T13:25:16.544Z,84518.44
2024-01-06T13:27:44.053Z,84511.97
2024-01-06T13:30:16.944Z,84524.34
2024-01-06T13:32:46.070Z,84526.56
2024-01-06T13:35:13.538Z,84441.25
2024-01-06T13:37:43.106Z,84520.50
2024-01-06T13:40:11.841Z,84540.63
2024-01-06T13:42:39.357Z,84545.13
2024-01-06T13:45:08.092Z,84551.25
2024-01-06T13:47:35.560Z,84547.81
2024-01-06T13:50:03.534Z,84552.56
2024-01-06T13:52:31.061Z,84554.31
2024-01-06T13:54:58.451Z,84564.63
2024-01-06T13:57:26.066Z,84552.53
2024-01-06T13:59:53.536Z,84554.75
2024-01-06T14:02:21.102Z,84436.94
2024-01-06T14:04:49.397Z,84565.84
2024-01-06T14:07:20.212Z,84565.47
2024-01-06T14:09:47.929Z,84560.78
2024-01-06T14:12:15.339Z,84570.91
2024-01-06T14:14:45.436Z,84565.94
2024-01-06T14:17:13.015Z,84572.09
2024-01-06T14:19:40.677Z,84581.00
2024-01-06T14:22:08.480Z,84582.19
2024-01-06T14:24:38.068Z,84585.06
2024-01-06T14:27:05.710Z,84572.59
2024-01-06T14:29:33.138Z,84584.47
2024-01-06T14:32:00.791Z,84488.56
2024-01-06T14:34:28.308Z,84514.38
2024-01-06T14:36:55.969Z,84605.19
2024-01-06T14:39:24.136Z,84616.28
2024-01-06T14:41:51.836Z,84615.38
2024-01-06T14:44:22.287Z,84616.50
2024-01-06T14:46:52.082Z,84614.84
2024-01-06T14:49:19.521Z,84611.31
2024-01-06T14:51:47.103Z,84614.81
2024-01-06T14:54:14.743Z,84611.56
2024-01-06T14:56:42.431Z,84610.59
2024-01-06T14:59:10.062Z,84607.09
2024-01-06T15:01:37.579Z,84610.16
2024-01-06T15:04:05.533Z,84617.38
2024-01-06T15:06:33.006Z,84622.66
2024-01-06T15:09:00.523Z,84617.59
2024-01-06T15:11:27.841Z,84645.19
2024-01-06T15:13:55.383Z,84637.16
2024-01-06T15:16:23.308Z,84642.16
2024-01-06T15:18:51.501Z,84629.84
2024-01-06T15:21:22.636Z,84623.22
2024-01-06T15:23:50.073Z,84617.69
2024-01-06T15:26:27.069Z,84611.31
2024-01-06T15:28:54.937Z,84622.03
2024-01-06T15:31:22.598Z,84621.47
2024-01-06T15:33:50.212Z,84634.13
2024-01-06T15:36:17.768Z,84616.28
2024-01-06T15:38:45.375Z,84636.25
2024-01-06T15:41:12.726Z,84649.25
2024-01-06T15:43:40.179Z,84646.00
2024-01-06T15:46:07.623Z,84620.94
2024-01-06T15:48:35.314Z,84657.63
2024-01-06T15:51:02.874Z,84666.28
2024-01-06T15:53:30.587Z,84667.59
2024-01-06T15:55:58.072Z,84663.94
2024-01-06T15:58:25.632Z,84668.16
2024-01-06T16:00:52.958Z,84662.25
2024-01-06T16:03:20.871Z,84667.94
2024-01-06T16:05:48.409Z,84665.03
2024-01-06T16:08:15.883Z,84682.97
2024-01-06T16:10:43.339Z,84688.38
2024-01-06T16:13:11.156Z,84686.69
2024-01-06T16:15:38.741Z,84688.66
2024-01-06T16:18:06.857Z,84673.03
2024-01-06T16:20:34.221Z,84680.06
2024-01-06T16:23:01.638Z,84692.34
2024-01-06T16:25:29.036Z,84693.75
2024-01-06T16:27:56.531Z,84689.94
2024-01-06T16:30:24.010Z,84689.53
2024-01-06T16:32:53.136Z,84707.56
2024-01-06T16:35:20.563Z,84691.47
2024-01-06T16:37:49.818Z,84673.19
2024-01-06T16:40:17.380Z,84700.94
2024-01-06T16:42:53.393Z,84704.78
2024-01-06T16:45:21.179Z,84701.38
2024-01-06T16:47:48.882Z,84630.69
2024-01-06T16:50:16.884Z,84699.13
2024-01-06T16:52:44.241Z,84700.00
2024-01-06T16:55:11.659Z,84697.16
2024-01-06T16:57:39.345Z,84693.34
2024-01-06T17:00:08.224Z,84686.31
2024-01-06T17:02:35.689Z,84650.53
2024-01-06T17:05:03.302Z,84676.31
2024-01-06T17:07:30.931Z,84551.66
2024-01-06T17:10:01.459Z,84562.22
2024-01-06T17:12:29.044Z,84663.22
2024-01-06T17:14:56.457Z,84689.31
2024-01-06T17:17:23.855Z,84673.66
2024-01-06T17:19:51.289Z,84649.94
2024-01-06T17:22:18.899Z,84689.84
2024-01-06T17:24:46.310Z,84695.03
2024-01-06T17:27:14.877Z,84702.81
2024-01-06T17:29:42.323Z,84616.00
2024-01-06T17:32:10.306Z,84709.31
2024-01-06T17:34:37.659Z,84637.28
2024-01-06T17:37:05.298Z,84610.53
2024-01-06T17:39:32.873Z,84670.38
2024-01-06T17:42:01.727Z,84700.41
2024-01-06T17:44:30.667Z,84675.34
2024-01-06T17:46:58.936Z,84603.63
2024-01-06T17:49:26.630Z,84650.84
2024-01-06T17:51:54.295Z,84686.09
2024-01-06T17:54:22.147Z,84702.44
2024-01-06T17:56:49.662Z,84693.25
2024-01-06T17:59:17.106Z,84684.53
2024-01-06T18:01:44.670Z,84599.69
2024-01-06T18:04:12.280Z,84683.25
2024-01-06T18:06:40.028Z,84684.53
2024-01-06T18:09:09.345Z,84685.66
2024-01-06T18:11:39.668Z,84672.69
2024-01-06T18:14:08.107Z,84684.94
2024-01-06T18:16:35.494Z,84686.09
2024-01-06T18:19:03.078Z,84686.22
2024-01-06T18:21:30.681Z,84678.19
2024-01-06T18:23:58.244Z,84669.59
2024-01-06T18:26:25.908Z,84673.13
2024-01-06T18:28:54.162Z,84675.22
2024-01-06T18:31:24.056Z,84565.19
2024-01-06T18:33:51.922Z,84684.25
2024-01-06T18:36:19.412Z,84678.47
2024-01-06T18:38:46.816Z,84672.25
2024-01-06T18:41:14.753Z,84666.63
2024-01-06T18:43:42.897Z,84668.47
2024-01-06T18:46:12.354Z,84655.91
2024-01-06T18:48:40.143Z,84598.31
2024-01-06T18:51:07.514Z,84634.78
2024-01-06T18:53:37.029Z,84664.66
2024-01-06T18:56:05.773Z,84674.94
2024-01-06T18:58:33.114Z,84682.00
2024-01-06T19:01:00.729Z,84677.91
2024-01-06T19:03:28.511Z,84688.19
2024-01-06T19:05:56.018Z,84683.25
2024-01-06T19:08:23.394Z,84636.34
2024-01-06T19:10:51.180Z,84629.00
2024-01-06T19:13:18.848Z,84684.84
2024-01-06T19:15:46.392Z,84677.22
2024-01-06T19:18:14.186Z,84682.00
2024-01-06T19:20:41.852Z,84686.53
2024-01-06T19:23:10.299Z,84689.78
2024-01-06T19:25:38.080Z,84688.75
2024-01-06T19:28:07.089Z,84692.16
2024-01-06T19:30:35.511Z,84658.03
2024-01-06T19:33:02.996Z,84698.34
2024-01-06T19:35:33.014Z,84644.78
2024-01-06T19:38:00.415Z,84696.38
2024-01-06T19:40:27.769Z,84706.97
2024-01-06T19:42:55.505Z,84611.38
2024-01-06T19:45:23.043Z,84691.59
2024-01-06T19:47:50.567Z,84692.28
2024-01-06T19:50:18.367Z,84699.50
2024-01-06T19:52:45.658Z,84702.59
2024-01-06T19:55:13.325Z,84708.22
2024-01-06T19:57:40.734Z,84711.88
2024-01-06T20:00:08.944Z,84658.88
2024-01-06T20:02:39.300Z,84650.84
2024-01-06T20:05:08.242Z,84711.47
2024-01-06T20:07:36.100Z,84712.19
2024-01-06T20:10:03.855Z,84712.59
2024-01-06T20:12:31.389Z,84676.34
2024-01-06T20:14:58.977Z,84713.28
2024-01-06T20:17:26.483Z,84690.72
2024-01-06T20:19:54.771Z,84707.63
2024-01-06T20:22:22.696Z,84664.06
2024-01-06T20:24:50.860Z,84625.41
2024-01-06T20:27:18.619Z,84719.91
2024-01-06T20:29:46.084Z,84724.28
2024-01-06T20:32:13.792Z,84709.56
2024-01-06T20:34:41.560Z,84724.53
2024-01-06T20:37:09.064Z,84721.41
2024-01-06T20:39:36.680Z,84720.84
2024-01-06T20:42:04.227Z,84728.56
2024-01-06T20:44:31.880Z,84721.03
2024-01-06T20:47:00.112Z,84730.31
2024-01-06T20:49:29.763Z,84725.25
2024-01-06T20:51:58.704Z,84643.75
2024-01-06T20:54:26.430Z,84718.09
2024-01-06T20:56:54.669Z,84708.53
2024-01-06T20:59:22.179Z,84712.19
2024-01-06T21:01:49.712Z,84702.91
2024-01-06T21:04:17.094Z,84707.53
2024-01-06T21:06:44.564Z,84707.25
2024-01-06T21:09:12.681Z,84708.25
2024-01-06T21:11:42.217Z,84703.03
2024-01-06T21:14:09.832Z,84704.41
2024-01-06T21:16:41.274Z,84695.66
2024-01-06T21:19:08.739Z,84700.41
2024-01-06T21:21:36.311Z,84695.31
2024-01-06T21:24:03.935Z,84651.22
2024-01-06T21:26:32.675Z,84702.84
2024-01-06T21:29:00.069Z,84697.06
2024-01-06T21:31:29.039Z,84701.75
2024-01-06T21:33:56.713Z,84697.97
2024-01-06T21:36:24.527Z,84697.84
2024-01-06T21:38:51.946Z,84697.59
2024-01-06T21:41:19.344Z,84695.06
2024-01-06T21:43:46.732Z,84692.09
2024-01-06T21:46:14.198Z,84703.22
2024-01-06T21:48:41.890Z,84695.63
2024-01-06T21:51:09.693Z,84694.91
2024-01-06T21:53:37.316Z,84702.41
2024-01-06T21:56:05.018Z,84696.63
2024-01-06T21:58:32.419Z,84689.44
2024-01-06T22:01:00.108Z,84692.78
2024-01-06T22:03:27.612Z,84693.94
2024-01-06T22:05:55.132Z,84693.63
2024-01-06T22:08:22.629Z,84683.22
2024-01-06T22:10:49.943Z,84666.41
2024-01-06T22:13:17.418Z,84683.22
2024-01-06T22:15:45.065Z,84661.19
2024-01-06T22:18:13.014Z,84685.44
2024-01-06T22:20:40.495Z,84677.56
2024-01-06T22:23:08.050Z,84686.28
2024-01-06T22:25:35.386Z,84679.59
2024-01-06T22:28:03.369Z,84693.88
2024-01-06T22:30:30.920Z,84690.16
2024-01-06T22:32:58.504Z,84687.88
2024-01-06T22:35:25.844Z,84691.94
2024-01-06T22:37:53.396Z,84676.88
2024-01-06T22:40:21.965Z,84688.84
2024-01-06T22:42:49.338Z,84690.34
2024-01-06T22:45:16.802Z,84692.19
2024-01-06T22:47:44.363Z,84691.66
2024-01-06T22:50:11.922Z,84666.59
2024-01-06T22:52:39.253Z,84684.47
2024-01-06T22:55:07.252Z,84684.47
2024-01-06T22:57:35.733Z,84686.19
2024-01-06T23:00:11.846Z,84681.13
2024-01-06T23:02:39.212Z,84592.06
2024-01-06T23:05:06.782Z,84604.88
2024-01-06T23:07:34.562Z,84668.06
2024-01-06T23:10:02.400Z,84687.25
2024-01-06T23:12:30.046Z,84684.78
2024-01-06T23:14:57.431Z,84684.09
2024-01-06T23:17:24.866Z,84687.31
2024-01-06T23:19:52.364Z,84682.78
2024-01-06T23:22:20.013Z,84686.56
2024-01-06T23:24:47.849Z,84687.97
2024-01-06T23:27:15.390Z,84681.50
2024-01-06T23:29:42.744Z,84684.03
2024-01-06T23:32:10.237Z,84597.94
2024-01-06T23:34:42.612Z,84585.50
2024-01-06T23:37:11.395Z,84687.69
2024-01-06T23:39:38.795Z,84650.97
2024-01-06T23:42:06.769Z,84605.84
2024-01-06T23:44:34.250Z,84569.16
2024-01-06T23:47:01.750Z,84576.44
2024-01-06T23:49:29.365Z,84694.97
2024-01-06T23:51:57.071Z,84677.94
2024-01-06T23:54:24.500Z,84687.56
2024-01-06T23:56:51.940Z,84689.56
2024-01-06T23:59:21.182Z,84675.63
